sensor_id;sensor_type;location;lat;lon;timestamp;temperature;humidity
30520;DHT22;17300;50.374;8.006;2024-03-23T00:53:04;14.40;45.10
30520;DHT22;17300;50.374;8.006;2024-03-23T00:55:30;14.40;45.20
30520;DHT22;17300;50.374;8.006;2024-03-23T00:57:56;14.40;45.80
30520;DHT22;17300;50.374;8.006;2024-03-23T01:00:23;14.40;45.30
30520;DHT22;17300;50.374;8.006;2024-03-23T01:02:49;14.40;45.50
30520;DHT22;17300;50.374;8.006;2024-03-23T01:05:15;14.40;45.50
30520;DHT22;17300;50.374;8.006;2024-03-23T01:07:41;14.40;45.60
30520;DHT22;17300;50.374;8.006;2024-03-23T01:10:09;14.40;45.70
30520;DHT22;17300;50.374;8.006;2024-03-23T01:12:35;14.40;45.80
30520;DHT22;17300;50.374;8.006;2024-03-23T01:15:02;14.40;45.70
30520;DHT22;17300;50.374;8.006;2024-03-23T01:17:28;14.40;45.70
30520;DHT22;17300;50.374;8.006;2024-03-23T01:19:54;14.40;45.70
30520;DHT22;17300;50.374;8.006;2024-03-23T01:22:20;14.40;45.50
30520;DHT22;17300;50.374;8.006;2024-03-23T01:24:47;14.40;45.50
30520;DHT22;17300;50.374;8.006;2024-03-23T01:27:14;14.40;45.60
30520;DHT22;17300;50.374;8.006;2024-03-23T01:29:40;14.40;45.70
30520;DHT22;17300;50.374;8.006;2024-03-23T01:32:06;14.40;45.90
30520;DHT22;17300;50.374;8.006;2024-03-23T01:34:33;14.30;45.90
30520;DHT22;17300;50.374;8.006;2024-03-23T01:36:59;14.40;46.00
30520;DHT22;17300;50.374;8.006;2024-03-23T01:39:26;14.40;46.00
30520;DHT22;17300;50.374;8.006;2024-03-23T01:41:52;14.40;46.00
30520;DHT22;17300;50.374;8.006;2024-03-23T01:44:20;14.40;46.10
30520;DHT22;17300;50.374;8.006;2024-03-23T01:46:45;14.40;46.10
30520;DHT22;17300;50.374;8.006;2024-03-23T01:49:13;14.40;46.10
30520;DHT22;17300;50.374;8.006;2024-03-23T01:51:39;14.40;46.20
30520;DHT22;17300;50.374;8.006;2024-03-23T01:54:06;14.40;46.20
30520;DHT22;17300;50.374;8.006;2024-03-23T01:56:33;14.40;46.20
30520;DHT22;17300;50.374;8.006;2024-03-23T01:59:01;14.40;46.30
30520;DHT22;17300;50.374;8.006;2024-03-23T02:01:28;14.40;46.30
30520;DHT22;17300;50.374;8.006;2024-03-23T02:03:54;14.30;46.30
30520;DHT22;17300;50.374;8.006;2024-03-23T02:06:21;14.40;46.40
30520;DHT22;17300;50.374;8.006;2024-03-23T02:08:48;14.40;46.40
30520;DHT22;17300;50.374;8.006;2024-03-23T02:11:14;14.40;46.40
30520;DHT22;17300;50.374;8.006;2024-03-23T02:13:41;14.40;46.50
30520;DHT22;17300;50.374;8.006;2024-03-23T02:16:06;14.30;46.30
30520;DHT22;17300;50.374;8.006;2024-03-23T02:18:35;14.40;46.50
30520;DHT22;17300;50.374;8.006;2024-03-23T02:21:01;14.30;46.60
30520;DHT22;17300;50.374;8.006;2024-03-23T02:23:29;14.40;46.70
30520;DHT22;17300;50.374;8.006;2024-03-23T02:25:55;14.40;46.80
30520;DHT22;17300;50.374;8.006;2024-03-23T02:28:22;14.40;46.80
30520;DHT22;17300;50.374;8.006;2024-03-23T02:30:48;14.40;46.80
30520;DHT22;17300;50.374;8.006;2024-03-23T02:33:15;14.40;46.90
30520;DHT22;17300;50.374;8.006;2024-03-23T02:35:41;14.40;47.10
30520;DHT22;17300;50.374;8.006;2024-03-23T02:38:07;14.40;47.10
30520;DHT22;17300;50.374;8.006;2024-03-23T02:40:34;14.40;47.00
30520;DHT22;17300;50.374;8.006;2024-03-23T02:43:02;14.40;47.00
30520;DHT22;17300;50.374;8.006;2024-03-23T02:45:28;14.40;46.90
30520;DHT22;17300;50.374;8.006;2024-03-23T02:47:55;14.40;47.10
30520;DHT22;17300;50.374;8.006;2024-03-23T02:50:21;14.40;47.10
30520;DHT22;17300;50.374;8.006;2024-03-23T02:52:47;14.30;47.10
30520;DHT22;17300;50.374;8.006;2024-03-23T02:55:14;14.40;47.40
30520;DHT22;17300;50.374;8.006;2024-03-23T02:57:42;14.40;47.50
30520;DHT22;17300;50.374;8.006;2024-03-23T03:00:08;14.40;47.60
30520;DHT22;17300;50.374;8.006;2024-03-23T03:02:36;14.40;47.60
30520;DHT22;17300;50.374;8.006;2024-03-23T03:05:03;14.40;47.70
30520;DHT22;17300;50.374;8.006;2024-03-23T03:07:30;14.40;47.70
30520;DHT22;17300;50.374;8.006;2024-03-23T03:09:56;14.40;47.90
30520;DHT22;17300;50.374;8.006;2024-03-23T03:12:22;14.40;48.10
30520;DHT22;17300;50.374;8.006;2024-03-23T03:14:50;14.40;48.00
30520;DHT22;17300;50.374;8.006;2024-03-23T03:17:16;14.40;48.10
30520;DHT22;17300;50.374;8.006;2024-03-23T03:19:42;14.40;47.90
30520;DHT22;17300;50.374;8.006;2024-03-23T03:22:09;14.40;47.90
30520;DHT22;17300;50.374;8.006;2024-03-23T03:24:34;14.40;47.80
30520;DHT22;17300;50.374;8.006;2024-03-23T03:27:01;14.40;47.70
30520;DHT22;17300;50.374;8.006;2024-03-23T03:29:28;14.30;47.60
30520;DHT22;17300;50.374;8.006;2024-03-23T03:32:02;14.30;47.40
30520;DHT22;17300;50.374;8.006;2024-03-23T03:34:27;14.30;47.30
30520;DHT22;17300;50.374;8.006;2024-03-23T03:36:54;14.20;47.10
30520;DHT22;17300;50.374;8.006;2024-03-23T03:39:20;14.20;47.00
30520;DHT22;17300;50.374;8.006;2024-03-23T03:41:48;14.20;47.10
30520;DHT22;17300;50.374;8.006;2024-03-23T03:44:13;14.20;47.10
30520;DHT22;17300;50.374;8.006;2024-03-23T03:46:40;14.10;47.10
30520;DHT22;17300;50.374;8.006;2024-03-23T03:49:07;14.10;47.20
30520;DHT22;17300;50.374;8.006;2024-03-23T03:51:34;14.10;47.30
30520;DHT22;17300;50.374;8.006;2024-03-23T03:54:00;14.10;47.30
30520;DHT22;17300;50.374;8.006;2024-03-23T03:56:26;14.00;47.30
30520;DHT22;17300;50.374;8.006;2024-03-23T03:58:53;14.00;47.30
30520;DHT22;17300;50.374;8.006;2024-03-23T04:01:20;14.00;47.30
30520;DHT22;17300;50.374;8.006;2024-03-23T04:03:45;14.00;47.40
30520;DHT22;17300;50.374;8.006;2024-03-23T04:06:18;14.00;47.50
30520;DHT22;17300;50.374;8.006;2024-03-23T04:08:44;13.90;47.70
30520;DHT22;17300;50.374;8.006;2024-03-23T04:11:11;13.90;47.50
30520;DHT22;17300;50.374;8.006;2024-03-23T04:13:36;13.90;47.60
30520;DHT22;17300;50.374;8.006;2024-03-23T04:16:04;13.90;47.60
30520;DHT22;17300;50.374;8.006;2024-03-23T04:18:29;13.90;47.70
30520;DHT22;17300;50.374;8.006;2024-03-23T04:20:56;13.90;47.70
30520;DHT22;17300;50.374;8.006;2024-03-23T04:23:23;13.90;47.70
30520;DHT22;17300;50.374;8.006;2024-03-23T04:25:50;13.80;47.70
30520;DHT22;17300;50.374;8.006;2024-03-23T04:28:17;13.80;47.60
30520;DHT22;17300;50.374;8.006;2024-03-23T04:30:44;13.90;47.70
30520;DHT22;17300;50.374;8.006;2024-03-23T04:33:09;13.80;47.70
30520;DHT22;17300;50.374;8.006;2024-03-23T04:35:36;13.80;47.70
30520;DHT22;17300;50.374;8.006;2024-03-23T04:38:02;13.80;47.80
30520;DHT22;17300;50.374;8.006;2024-03-23T04:40:30;13.80;47.80
30520;DHT22;17300;50.374;8.006;2024-03-23T04:42:56;13.80;47.80
30520;DHT22;17300;50.374;8.006;2024-03-23T04:45:23;13.80;47.80
30520;DHT22;17300;50.374;8.006;2024-03-23T04:47:50;13.80;47.80
30520;DHT22;17300;50.374;8.006;2024-03-23T04:50:16;13.70;47.70
30520;DHT22;17300;50.374;8.006;2024-03-23T04:52:44;13.70;47.80
30520;DHT22;17300;50.374;8.006;2024-03-23T04:55:10;13.70;47.80
30520;DHT22;17300;50.374;8.006;2024-03-23T04:57:38;13.70;47.80
30520;DHT22;17300;50.374;8.006;2024-03-23T05:00:05;13.70;47.90
30520;DHT22;17300;50.374;8.006;2024-03-23T05:02:42;13.70;47.90
30520;DHT22;17300;50.374;8.006;2024-03-23T05:05:09;13.70;47.90
30520;DHT22;17300;50.374;8.006;2024-03-23T05:07:36;13.60;47.70
30520;DHT22;17300;50.374;8.006;2024-03-23T05:10:03;13.60;47.50
30520;DHT22;17300;50.374;8.006;2024-03-23T05:12:29;13.50;47.30
30520;DHT22;17300;50.374;8.006;2024-03-23T05:14:58;13.50;47.30
30520;DHT22;17300;50.374;8.006;2024-03-23T05:17:23;13.40;47.20
30520;DHT22;17300;50.374;8.006;2024-03-23T05:19:50;13.40;47.20
30520;DHT22;17300;50.374;8.006;2024-03-23T05:22:16;13.30;47.10
30520;DHT22;17300;50.374;8.006;2024-03-23T05:24:44;13.30;47.10
30520;DHT22;17300;50.374;8.006;2024-03-23T05:27:10;13.20;47.10
30520;DHT22;17300;50.374;8.006;2024-03-23T05:29:37;13.30;47.00
30520;DHT22;17300;50.374;8.006;2024-03-23T05:32:04;13.20;46.80
30520;DHT22;17300;50.374;8.006;2024-03-23T05:34:31;13.10;46.70
30520;DHT22;17300;50.374;8.006;2024-03-23T05:36:56;13.10;46.70
30520;DHT22;17300;50.374;8.006;2024-03-23T05:39:23;13.10;46.60
30520;DHT22;17300;50.374;8.006;2024-03-23T05:41:49;13.00;46.40
30520;DHT22;17300;50.374;8.006;2024-03-23T05:44:16;13.00;46.40
30520;DHT22;17300;50.374;8.006;2024-03-23T05:46:42;13.00;46.40
30520;DHT22;17300;50.374;8.006;2024-03-23T05:49:15;12.90;46.40
30520;DHT22;17300;50.374;8.006;2024-03-23T05:51:41;12.90;46.40
30520;DHT22;17300;50.374;8.006;2024-03-23T05:54:08;12.80;46.20
30520;DHT22;17300;50.374;8.006;2024-03-23T05:56:34;12.80;46.30
30520;DHT22;17300;50.374;8.006;2024-03-23T05:59:00;12.80;46.30
30520;DHT22;17300;50.374;8.006;2024-03-23T06:01:26;12.80;46.40
30520;DHT22;17300;50.374;8.006;2024-03-23T06:03:54;12.70;46.30
30520;DHT22;17300;50.374;8.006;2024-03-23T06:06:21;12.70;46.40
30520;DHT22;17300;50.374;8.006;2024-03-23T06:08:47;12.70;46.50
30520;DHT22;17300;50.374;8.006;2024-03-23T06:11:13;12.70;46.50
30520;DHT22;17300;50.374;8.006;2024-03-23T06:13:40;12.70;46.50
30520;DHT22;17300;50.374;8.006;2024-03-23T06:16:06;12.70;46.50
30520;DHT22;17300;50.374;8.006;2024-03-23T06:18:32;12.70;46.50
30520;DHT22;17300;50.374;8.006;2024-03-23T06:20:58;12.60;46.40
30520;DHT22;17300;50.374;8.006;2024-03-23T06:23:26;12.60;46.30
30520;DHT22;17300;50.374;8.006;2024-03-23T06:25:52;12.60;46.30
30520;DHT22;17300;50.374;8.006;2024-03-23T06:28:18;12.60;46.30
30520;DHT22;17300;50.374;8.006;2024-03-23T06:30:44;12.60;46.30
30520;DHT22;17300;50.374;8.006;2024-03-23T06:33:11;12.60;46.30
30520;DHT22;17300;50.374;8.006;2024-03-23T06:35:37;12.60;46.30
30520;DHT22;17300;50.374;8.006;2024-03-23T06:38:03;12.60;46.30
30520;DHT22;17300;50.374;8.006;2024-03-23T06:40:31;12.60;46.30
30520;DHT22;17300;50.374;8.006;2024-03-23T06:42:57;12.60;46.40
30520;DHT22;17300;50.374;8.006;2024-03-23T06:45:23;12.50;46.40
30520;DHT22;17300;50.374;8.006;2024-03-23T06:47:50;12.60;46.50
30520;DHT22;17300;50.374;8.006;2024-03-23T06:50:16;12.60;46.50
30520;DHT22;17300;50.374;8.006;2024-03-23T06:52:42;12.60;46.50
30520;DHT22;17300;50.374;8.006;2024-03-23T06:55:08;12.60;46.50
30520;DHT22;17300;50.374;8.006;2024-03-23T06:57:36;12.60;46.60
30520;DHT22;17300;50.374;8.006;2024-03-23T07:00:02;12.60;46.60
30520;DHT22;17300;50.374;8.006;2024-03-23T07:02:29;12.60;46.60
30520;DHT22;17300;50.374;8.006;2024-03-23T07:04:55;12.60;46.60
30520;DHT22;17300;50.374;8.006;2024-03-23T07:07:22;12.60;46.60
30520;DHT22;17300;50.374;8.006;2024-03-23T07:09:48;12.60;46.70
30520;DHT22;17300;50.374;8.006;2024-03-23T07:12:15;12.60;46.80
30520;DHT22;17300;50.374;8.006;2024-03-23T07:14:42;12.60;46.80
30520;DHT22;17300;50.374;8.006;2024-03-23T07:17:08;12.60;46.80
30520;DHT22;17300;50.374;8.006;2024-03-23T07:19:34;12.60;46.80
30520;DHT22;17300;50.374;8.006;2024-03-23T07:22:00;12.70;46.90
30520;DHT22;17300;50.374;8.006;2024-03-23T07:24:26;12.70;46.80
30520;DHT22;17300;50.374;8.006;2024-03-23T07:26:53;12.70;46.80
30520;DHT22;17300;50.374;8.006;2024-03-23T07:29:19;12.70;46.90
30520;DHT22;17300;50.374;8.006;2024-03-23T07:31:47;12.70;46.80
30520;DHT22;17300;50.374;8.006;2024-03-23T07:34:13;12.70;46.70
30520;DHT22;17300;50.374;8.006;2024-03-23T07:36:40;12.70;46.70
30520;DHT22;17300;50.374;8.006;2024-03-23T07:39:05;12.70;46.70
30520;DHT22;17300;50.374;8.006;2024-03-23T07:41:33;12.60;46.60
30520;DHT22;17300;50.374;8.006;2024-03-23T07:43:59;12.60;46.80
30520;DHT22;17300;50.374;8.006;2024-03-23T07:46:25;12.70;47.00
30520;DHT22;17300;50.374;8.006;2024-03-23T07:48:52;12.70;47.10
30520;DHT22;17300;50.374;8.006;2024-03-23T07:51:21;12.70;47.10
30520;DHT22;17300;50.374;8.006;2024-03-23T07:53:47;12.70;47.20
30520;DHT22;17300;50.374;8.006;2024-03-23T07:56:14;12.80;47.20
30520;DHT22;17300;50.374;8.006;2024-03-23T07:58:41;12.80;47.30
30520;DHT22;17300;50.374;8.006;2024-03-23T08:01:09;12.80;47.40
30520;DHT22;17300;50.374;8.006;2024-03-23T08:03:36;12.80;47.40
30520;DHT22;17300;50.374;8.006;2024-03-23T08:06:12;12.90;47.60
30520;DHT22;17300;50.374;8.006;2024-03-23T08:08:38;13.00;47.70
30520;DHT22;17300;50.374;8.006;2024-03-23T08:11:05;13.00;47.50
30520;DHT22;17300;50.374;8.006;2024-03-23T08:13:31;13.10;47.70
30520;DHT22;17300;50.374;8.006;2024-03-23T08:15:58;13.20;48.10
30520;DHT22;17300;50.374;8.006;2024-03-23T08:18:24;13.30;48.40
30520;DHT22;17300;50.374;8.006;2024-03-23T08:20:57;13.40;48.50
30520;DHT22;17300;50.374;8.006;2024-03-23T08:23:24;13.50;48.20
30520;DHT22;17300;50.374;8.006;2024-03-23T08:25:51;13.60;48.00
30520;DHT22;17300;50.374;8.006;2024-03-23T08:28:17;13.70;47.80
30520;DHT22;17300;50.374;8.006;2024-03-23T08:30:44;13.80;48.10
30520;DHT22;17300;50.374;8.006;2024-03-23T08:33:09;13.80;47.20
30520;DHT22;17300;50.374;8.006;2024-03-23T08:35:36;13.90;46.90
30520;DHT22;17300;50.374;8.006;2024-03-23T08:38:02;13.90;46.70
30520;DHT22;17300;50.374;8.006;2024-03-23T08:40:30;13.90;46.70
30520;DHT22;17300;50.374;8.006;2024-03-23T08:42:56;13.90;46.70
30520;DHT22;17300;50.374;8.006;2024-03-23T08:45:23;13.90;46.90
30520;DHT22;17300;50.374;8.006;2024-03-23T08:47:49;14.00;47.70
30520;DHT22;17300;50.374;8.006;2024-03-23T08:50:16;14.10;48.60
30520;DHT22;17300;50.374;8.006;2024-03-23T08:52:41;14.20;49.30
30520;DHT22;17300;50.374;8.006;2024-03-23T08:55:08;14.50;49.60
30520;DHT22;17300;50.374;8.006;2024-03-23T08:57:36;14.80;50.00
30520;DHT22;17300;50.374;8.006;2024-03-23T09:00:03;15.10;50.50
30520;DHT22;17300;50.374;8.006;2024-03-23T09:02:31;15.40;50.60
30520;DHT22;17300;50.374;8.006;2024-03-23T09:04:58;15.80;50.80
30520;DHT22;17300;50.374;8.006;2024-03-23T09:07:30;16.30;51.30
30520;DHT22;17300;50.374;8.006;2024-03-23T09:09:56;16.70;51.50
30520;DHT22;17300;50.374;8.006;2024-03-23T09:12:22;17.20;51.40
30520;DHT22;17300;50.374;8.006;2024-03-23T09:14:50;17.70;50.80
30520;DHT22;17300;50.374;8.006;2024-03-23T09:17:16;18.20;50.20
30520;DHT22;17300;50.374;8.006;2024-03-23T09:19:43;18.60;49.80
30520;DHT22;17300;50.374;8.006;2024-03-23T09:22:09;19.10;49.20
30520;DHT22;17300;50.374;8.006;2024-03-23T09:24:36;19.40;47.20
30520;DHT22;17300;50.374;8.006;2024-03-23T09:27:02;19.60;47.00
30520;DHT22;17300;50.374;8.006;2024-03-23T09:29:29;19.90;47.10
30520;DHT22;17300;50.374;8.006;2024-03-23T09:31:56;20.20;46.40
30520;DHT22;17300;50.374;8.006;2024-03-23T09:34:23;20.30;45.20
30520;DHT22;17300;50.374;8.006;2024-03-23T09:36:51;20.50;44.70
30520;DHT22;17300;50.374;8.006;2024-03-23T09:39:18;20.60;44.40
30520;DHT22;17300;50.374;8.006;2024-03-23T09:41:43;20.80;44.80
30520;DHT22;17300;50.374;8.006;2024-03-23T09:44:10;21.00;44.70
30520;DHT22;17300;50.374;8.006;2024-03-23T09:46:36;21.10;43.50
30520;DHT22;17300;50.374;8.006;2024-03-23T09:49:07;21.20;42.60
30520;DHT22;17300;50.374;8.006;2024-03-23T09:51:35;21.30;41.90
30520;DHT22;17300;50.374;8.006;2024-03-23T09:54:02;21.30;41.30
30520;DHT22;17300;50.374;8.006;2024-03-23T09:56:28;21.20;40.00
30520;DHT22;17300;50.374;8.006;2024-03-23T09:59:00;21.00;38.70
30520;DHT22;17300;50.374;8.006;2024-03-23T10:01:26;20.70;37.70
30520;DHT22;17300;50.374;8.006;2024-03-23T10:03:53;20.40;38.00
30520;DHT22;17300;50.374;8.006;2024-03-23T10:06:22;20.00;37.70
30520;DHT22;17300;50.374;8.006;2024-03-23T10:08:51;19.70;37.50
30520;DHT22;17300;50.374;8.006;2024-03-23T10:11:18;19.40;38.40
30520;DHT22;17300;50.374;8.006;2024-03-23T10:13:46;19.20;38.80
30520;DHT22;17300;50.374;8.006;2024-03-23T10:16:20;19.00;38.80
30520;DHT22;17300;50.374;8.006;2024-03-23T10:18:47;18.80;38.70
30520;DHT22;17300;50.374;8.006;2024-03-23T10:21:15;18.60;38.70
30520;DHT22;17300;50.374;8.006;2024-03-23T10:23:43;18.40;38.50
30520;DHT22;17300;50.374;8.006;2024-03-23T10:26:13;18.30;39.20
30520;DHT22;17300;50.374;8.006;2024-03-23T10:28:54;18.20;39.90
30520;DHT22;17300;50.374;8.006;2024-03-23T10:31:20;18.10;39.60
30520;DHT22;17300;50.374;8.006;2024-03-23T10:33:47;18.10;40.00
30520;DHT22;17300;50.374;8.006;2024-03-23T10:36:13;18.10;40.40
30520;DHT22;17300;50.374;8.006;2024-03-23T10:38:40;18.20;42.00
30520;DHT22;17300;50.374;8.006;2024-03-23T10:41:08;18.60;44.20
30520;DHT22;17300;50.374;8.006;2024-03-23T10:43:36;19.10;46.00
30520;DHT22;17300;50.374;8.006;2024-03-23T10:46:02;19.70;47.20
30520;DHT22;17300;50.374;8.006;2024-03-23T10:48:29;20.40;46.20
30520;DHT22;17300;50.374;8.006;2024-03-23T10:50:54;20.90;44.50
30520;DHT22;17300;50.374;8.006;2024-03-23T10:53:22;21.20;42.40
30520;DHT22;17300;50.374;8.006;2024-03-23T10:55:51;21.40;41.10
30520;DHT22;17300;50.374;8.006;2024-03-23T10:58:23;21.50;40.20
30520;DHT22;17300;50.374;8.006;2024-03-23T11:00:50;21.50;37.90
30520;DHT22;17300;50.374;8.006;2024-03-23T11:03:30;21.40;37.70
30520;DHT22;17300;50.374;8.006;2024-03-23T11:05:56;21.10;35.70
30520;DHT22;17300;50.374;8.006;2024-03-23T11:08:30;20.70;35.40
30520;DHT22;17300;50.374;8.006;2024-03-23T11:11:12;20.30;34.30
30520;DHT22;17300;50.374;8.006;2024-03-23T11:13:40;19.90;34.30
30520;DHT22;17300;50.374;8.006;2024-03-23T11:16:24;19.50;33.60
30520;DHT22;17300;50.374;8.006;2024-03-23T11:18:54;19.00;33.40
30520;DHT22;17300;50.374;8.006;2024-03-23T11:21:51;18.70;34.00
30520;DHT22;17300;50.374;8.006;2024-03-23T11:24:19;18.40;34.70
30520;DHT22;17300;50.374;8.006;2024-03-23T11:26:45;18.30;36.10
30520;DHT22;17300;50.374;8.006;2024-03-23T11:29:15;18.20;36.40
30520;DHT22;17300;50.374;8.006;2024-03-23T11:31:46;18.20;37.10
30520;DHT22;17300;50.374;8.006;2024-03-23T11:34:13;18.20;36.90
30520;DHT22;17300;50.374;8.006;2024-03-23T11:36:40;18.20;36.90
30520;DHT22;17300;50.374;8.006;2024-03-23T11:39:13;18.20;36.50
30520;DHT22;17300;50.374;8.006;2024-03-23T11:41:47;18.20;36.00
30520;DHT22;17300;50.374;8.006;2024-03-23T11:44:22;18.10;36.10
30520;DHT22;17300;50.374;8.006;2024-03-23T11:46:48;18.10;36.50
30520;DHT22;17300;50.374;8.006;2024-03-23T11:49:22;18.10;37.30
30520;DHT22;17300;50.374;8.006;2024-03-23T11:51:48;18.30;37.80
30520;DHT22;17300;50.374;8.006;2024-03-23T11:54:15;18.50;38.20
30520;DHT22;17300;50.374;8.006;2024-03-23T11:56:54;18.70;38.50
30520;DHT22;17300;50.374;8.006;2024-03-23T11:59:35;19.10;38.80
30520;DHT22;17300;50.374;8.006;2024-03-23T12:02:06;19.50;39.40
30520;DHT22;17300;50.374;8.006;2024-03-23T12:04:33;19.80;37.20
30520;DHT22;17300;50.374;8.006;2024-03-23T12:07:12;19.80;36.00
30520;DHT22;17300;50.374;8.006;2024-03-23T12:09:38;19.70;35.20
30520;DHT22;17300;50.374;8.006;2024-03-23T12:12:15;19.50;35.00
30520;DHT22;17300;50.374;8.006;2024-03-23T12:14:44;19.30;34.70
30520;DHT22;17300;50.374;8.006;2024-03-23T12:17:13;19.10;34.80
30520;DHT22;17300;50.374;8.006;2024-03-23T12:19:42;18.80;34.50
30520;DHT22;17300;50.374;8.006;2024-03-23T12:22:08;18.60;34.50
30520;DHT22;17300;50.374;8.006;2024-03-23T12:24:35;18.20;34.40
30520;DHT22;17300;50.374;8.006;2024-03-23T12:27:02;17.90;34.60
30520;DHT22;17300;50.374;8.006;2024-03-23T12:29:29;17.60;34.80
30520;DHT22;17300;50.374;8.006;2024-03-23T12:31:59;17.20;34.90
30520;DHT22;17300;50.374;8.006;2024-03-23T12:34:26;16.90;35.30
30520;DHT22;17300;50.374;8.006;2024-03-23T12:36:51;16.70;35.60
30520;DHT22;17300;50.374;8.006;2024-03-23T12:39:18;16.50;35.90
30520;DHT22;17300;50.374;8.006;2024-03-23T12:41:44;16.20;35.90
30520;DHT22;17300;50.374;8.006;2024-03-23T12:44:10;16.10;36.40
30520;DHT22;17300;50.374;8.006;2024-03-23T12:46:37;15.90;36.40
30520;DHT22;17300;50.374;8.006;2024-03-23T12:49:05;15.70;36.50
30520;DHT22;17300;50.374;8.006;2024-03-23T12:51:31;15.70;36.70
30520;DHT22;17300;50.374;8.006;2024-03-23T12:53:58;15.50;36.90
30520;DHT22;17300;50.374;8.006;2024-03-23T12:56:24;15.40;37.10
30520;DHT22;17300;50.374;8.006;2024-03-23T12:58:50;15.20;37.00
30520;DHT22;17300;50.374;8.006;2024-03-23T13:01:16;15.00;37.00
30520;DHT22;17300;50.374;8.006;2024-03-23T13:03:46;14.80;37.10
30520;DHT22;17300;50.374;8.006;2024-03-23T13:06:13;14.60;37.40
30520;DHT22;17300;50.374;8.006;2024-03-23T13:08:40;14.40;37.60
30520;DHT22;17300;50.374;8.006;2024-03-23T13:11:06;14.30;38.10
30520;DHT22;17300;50.374;8.006;2024-03-23T13:13:34;14.20;38.70
30520;DHT22;17300;50.374;8.006;2024-03-23T13:15:59;14.10;39.30
30520;DHT22;17300;50.374;8.006;2024-03-23T13:18:26;14.20;39.90
30520;DHT22;17300;50.374;8.006;2024-03-23T13:20:52;14.30;40.70
30520;DHT22;17300;50.374;8.006;2024-03-23T13:23:20;14.50;41.80
30520;DHT22;17300;50.374;8.006;2024-03-23T13:25:50;14.80;42.40
30520;DHT22;17300;50.374;8.006;2024-03-23T13:28:18;15.00;42.30
30520;DHT22;17300;50.374;8.006;2024-03-23T13:30:50;15.40;42.60
30520;DHT22;17300;50.374;8.006;2024-03-23T13:33:17;15.70;42.50
30520;DHT22;17300;50.374;8.006;2024-03-23T13:35:49;16.00;42.30
30520;DHT22;17300;50.374;8.006;2024-03-23T13:38:15;16.30;41.50
30520;DHT22;17300;50.374;8.006;2024-03-23T13:40:53;16.50;40.80
30520;DHT22;17300;50.374;8.006;2024-03-23T13:43:20;16.50;40.10
30520;DHT22;17300;50.374;8.006;2024-03-23T13:45:47;16.50;39.40
30520;DHT22;17300;50.374;8.006;2024-03-23T13:48:14;16.30;39.00
30520;DHT22;17300;50.374;8.006;2024-03-23T13:50:40;16.10;38.90
30520;DHT22;17300;50.374;8.006;2024-03-23T13:53:06;16.00;38.80
30520;DHT22;17300;50.374;8.006;2024-03-23T13:55:33;15.80;38.60
30520;DHT22;17300;50.374;8.006;2024-03-23T13:58:01;15.60;38.50
30520;DHT22;17300;50.374;8.006;2024-03-23T14:00:27;15.40;38.60
30520;DHT22;17300;50.374;8.006;2024-03-23T14:02:54;15.20;39.10
30520;DHT22;17300;50.374;8.006;2024-03-23T14:05:19;15.20;39.60
30520;DHT22;17300;50.374;8.006;2024-03-23T14:07:46;15.10;39.90
30520;DHT22;17300;50.374;8.006;2024-03-23T14:10:11;15.30;40.70
30520;DHT22;17300;50.374;8.006;2024-03-23T14:12:38;15.50;41.70
30520;DHT22;17300;50.374;8.006;2024-03-23T14:15:07;15.90;43.10
30520;DHT22;17300;50.374;8.006;2024-03-23T14:17:34;16.50;44.00
30520;DHT22;17300;50.374;8.006;2024-03-23T14:20:00;17.20;45.30
30520;DHT22;17300;50.374;8.006;2024-03-23T14:22:27;18.10;46.00
30520;DHT22;17300;50.374;8.006;2024-03-23T14:24:53;18.90;45.90
30520;DHT22;17300;50.374;8.006;2024-03-23T14:27:20;19.80;45.80
30520;DHT22;17300;50.374;8.006;2024-03-23T14:29:47;20.60;45.20
30520;DHT22;17300;50.374;8.006;2024-03-23T14:32:15;21.30;44.70
30520;DHT22;17300;50.374;8.006;2024-03-23T14:34:41;21.90;43.50
30520;DHT22;17300;50.374;8.006;2024-03-23T14:37:07;22.20;41.30
30520;DHT22;17300;50.374;8.006;2024-03-23T14:39:33;22.30;39.10
30520;DHT22;17300;50.374;8.006;2024-03-23T14:42:00;22.00;38.00
30520;DHT22;17300;50.374;8.006;2024-03-23T14:44:26;21.70;36.00
30520;DHT22;17300;50.374;8.006;2024-03-23T14:46:53;21.10;35.50
30520;DHT22;17300;50.374;8.006;2024-03-23T14:49:21;20.60;35.10
30520;DHT22;17300;50.374;8.006;2024-03-23T14:51:47;20.10;34.80
30520;DHT22;17300;50.374;8.006;2024-03-23T14:54:14;19.50;34.50
30520;DHT22;17300;50.374;8.006;2024-03-23T14:56:40;19.00;34.60
30520;DHT22;17300;50.374;8.006;2024-03-23T14:59:06;18.60;34.90
30520;DHT22;17300;50.374;8.006;2024-03-23T15:01:33;18.10;34.90
30520;DHT22;17300;50.374;8.006;2024-03-23T15:04:00;17.70;35.30
30520;DHT22;17300;50.374;8.006;2024-03-23T15:06:27;17.30;35.50
30520;DHT22;17300;50.374;8.006;2024-03-23T15:08:53;16.90;35.70
30520;DHT22;17300;50.374;8.006;2024-03-23T15:11:19;16.60;36.10
30520;DHT22;17300;50.374;8.006;2024-03-23T15:13:49;16.30;36.30
30520;DHT22;17300;50.374;8.006;2024-03-23T15:16:17;16.00;36.50
30520;DHT22;17300;50.374;8.006;2024-03-23T15:18:45;15.70;36.70
30520;DHT22;17300;50.374;8.006;2024-03-23T15:21:11;15.50;37.10
30520;DHT22;17300;50.374;8.006;2024-03-23T15:23:41;15.30;37.20
30520;DHT22;17300;50.374;8.006;2024-03-23T15:26:08;15.00;37.50
30520;DHT22;17300;50.374;8.006;2024-03-23T15:28:36;14.90;37.70
30520;DHT22;17300;50.374;8.006;2024-03-23T15:31:07;14.90;38.40
30520;DHT22;17300;50.374;8.006;2024-03-23T15:33:34;15.00;39.80
30520;DHT22;17300;50.374;8.006;2024-03-23T15:36:01;15.30;40.80
30520;DHT22;17300;50.374;8.006;2024-03-23T15:38:28;15.50;40.80
30520;DHT22;17300;50.374;8.006;2024-03-23T15:40:56;15.80;40.80
30520;DHT22;17300;50.374;8.006;2024-03-23T15:43:22;16.00;40.40
30520;DHT22;17300;50.374;8.006;2024-03-23T15:45:54;16.20;40.20
30520;DHT22;17300;50.374;8.006;2024-03-23T15:48:21;16.40;39.40
30520;DHT22;17300;50.374;8.006;2024-03-23T15:50:50;16.60;39.50
30520;DHT22;17300;50.374;8.006;2024-03-23T15:53:18;16.80;39.60
30520;DHT22;17300;50.374;8.006;2024-03-23T15:55:44;17.10;39.40
30520;DHT22;17300;50.374;8.006;2024-03-23T15:58:12;17.40;39.60
30520;DHT22;17300;50.374;8.006;2024-03-23T16:00:37;17.80;39.50
30520;DHT22;17300;50.374;8.006;2024-03-23T16:03:04;18.10;38.80
30520;DHT22;17300;50.374;8.006;2024-03-23T16:05:30;18.40;38.60
30520;DHT22;17300;50.374;8.006;2024-03-23T16:07:57;18.60;38.00
30520;DHT22;17300;50.374;8.006;2024-03-23T16:10:22;18.70;37.60
30520;DHT22;17300;50.374;8.006;2024-03-23T16:12:49;18.80;37.50
30520;DHT22;17300;50.374;8.006;2024-03-23T16:15:16;18.80;37.00
30520;DHT22;17300;50.374;8.006;2024-03-23T16:17:43;18.70;36.40
30520;DHT22;17300;50.374;8.006;2024-03-23T16:20:09;18.60;36.00
30520;DHT22;17300;50.374;8.006;2024-03-23T16:22:36;18.30;35.70